Time;durP1;ratioP1;P1;durP2;ratioP2;P2;SDS_P1;SDS_P2;PMS_P1;PMS_P2;Temp;Humidity;BMP_temperature;BMP_pressure;BME280_temperature;BME280_humidity;BME280_pressure;Samples;Min_cycle;Max_cycle;Signal;HPM_P1;HPM_P2
2022/03/24 00:01:21;;;;;;;35.33;19.30;;;5.70;55.10;;;;;;5158537;28;20185;-51
2022/03/24 00:03:51;;;;;;;41.83;20.63;;;5.60;55.30;;;;;;5160899;28;20191;-53
2022/03/24 00:06:22;;;;;;;34.10;18.00;;;5.60;56.30;;;;;;5154659;28;20207;-51
2022/03/24 00:08:52;;;;;;;37.83;20.03;;;5.50;56.50;;;;;;5157191;28;20219;-55
2022/03/24 00:11:23;;;;;;;35.23;18.97;;;5.50;56.90;;;;;;5157354;28;20702;-50
2022/03/24 00:13:54;;;;;;;41.20;18.47;;;5.50;57.20;;;;;;5155977;28;20195;-54
2022/03/24 00:16:26;;;;;;;40.30;19.40;;;5.50;57.30;;;;;;5158742;28;20208;-52
2022/03/24 00:18:56;;;;;;;42.87;20.27;;;5.50;58.00;;;;;;5143613;28;20480;-51
2022/03/24 00:21:27;;;;;;;36.40;21.00;;;5.40;58.50;;;;;;5149590;28;20514;-52
2022/03/24 00:23:58;;;;;;;42.87;21.40;;;5.30;59.10;;;;;;5156806;28;20186;-51
2022/03/24 00:26:28;;;;;;;39.33;20.83;;;5.40;59.40;;;;;;5160409;28;20207;-51
2022/03/24 00:28:59;;;;;;;40.20;20.50;;;5.30;59.60;;;;;;5161310;28;20725;-51
2022/03/24 00:31:30;;;;;;;42.53;21.60;;;5.30;59.70;;;;;;5162133;28;20268;-56
2022/03/24 00:34:00;;;;;;;43.40;22.00;;;5.40;60.00;;;;;;5149379;28;20289;-50
2022/03/24 00:36:31;;;;;;;34.33;17.93;;;5.30;60.30;;;;;;5155306;28;20591;-51
2022/03/24 00:39:02;;;;;;;34.93;18.50;;;5.30;60.60;;;;;;5154375;28;20210;-51
2022/03/24 00:41:35;;;;;;;37.20;19.23;;;5.20;60.80;;;;;;5151658;28;20198;-49
2022/03/24 00:44:07;;;;;;;38.70;18.47;;;5.10;63.30;;;;;;5153105;28;20511;-51
2022/03/24 00:46:37;;;;;;;38.53;20.10;;;5.10;63.30;;;;;;5159657;28;20471;-50
2022/03/24 00:49:08;;;;;;;42.50;22.90;;;5.00;65.40;;;;;;5159584;28;20956;-50
2022/03/24 00:51:38;;;;;;;38.00;20.03;;;5.00;66.20;;;;;;5154600;28;20185;-50
2022/03/24 00:54:09;;;;;;;43.47;20.90;;;5.00;67.00;;;;;;5153524;28;20190;-50
2022/03/24 00:56:40;;;;;;;39.10;19.07;;;5.00;68.00;;;;;;5159034;28;20177;-50
2022/03/24 00:59:10;;;;;;;46.20;21.20;;;4.90;68.00;;;;;;5154912;28;20565;-51
2022/03/24 01:01:41;;;;;;;36.83;19.10;;;4.90;68.70;;;;;;5160076;28;20192;-50
2022/03/24 01:04:12;;;;;;;42.67;19.00;;;4.80;69.50;;;;;;5138552;28;20175;-49
2022/03/24 01:06:43;;;;;;;41.13;19.53;;;4.80;71.10;;;;;;5157276;28;20186;-50
2022/03/24 01:09:13;;;;;;;39.23;18.83;;;4.70;72.40;;;;;;5157928;28;20460;-50
2022/03/24 01:11:44;;;;;;;34.20;19.37;;;4.70;74.10;;;;;;5154908;28;20202;-49
2022/03/24 01:14:16;;;;;;;39.70;20.40;;;4.60;76.70;;;;;;5156718;28;20259;-50
2022/03/24 01:16:47;;;;;;;39.73;19.13;;;4.60;78.00;;;;;;5151954;28;20180;-49
2022/03/24 01:19:17;;;;;;;35.10;19.07;;;4.60;78.20;;;;;;5150629;23;20502;-49
2022/03/24 01:21:48;;;;;;;36.63;20.17;;;4.50;80.00;;;;;;5133910;28;20224;-48
2022/03/24 01:24:18;;;;;;;39.83;20.20;;;4.50;81.60;;;;;;5139089;28;20684;-46
2022/03/24 01:26:49;;;;;;;39.13;20.20;;;4.50;82.90;;;;;;5130646;28;20190;-47
2022/03/24 01:29:22;;;;;;;39.57;20.20;;;4.50;83.60;;;;;;5134305;28;20720;-48
2022/03/24 01:31:52;;;;;;;39.40;21.70;;;4.40;84.50;;;;;;5133890;28;20529;-48
2022/03/24 01:34:24;;;;;;;39.03;20.03;;;4.50;86.70;;;;;;5134798;28;20932;-47
2022/03/24 01:36:55;;;;;;;34.70;18.20;;;4.40;87.40;;;;;;5125819;28;20179;-48
2022/03/24 01:39:26;;;;;;;35.03;19.30;;;4.40;88.30;;;;;;5135741;28;20551;-48
2022/03/24 01:41:57;;;;;;;36.63;19.50;;;4.40;90.10;;;;;;5129369;28;20480;-48
2022/03/24 01:44:28;;;;;;;40.13;20.20;;;4.30;91.30;;;;;;5128950;28;20185;-48
2022/03/24 01:47:02;;;;;;;41.50;21.33;;;4.30;91.60;;;;;;5129335;28;20186;-48
2022/03/24 01:49:36;;;;;;;34.50;20.43;;;4.20;92.50;;;;;;5125820;28;20545;-48
2022/03/24 01:52:09;;;;;;;32.07;19.03;;;4.20;92.90;;;;;;5133050;28;20464;-48
2022/03/24 01:54:48;;;;;;;33.77;19.37;;;4.20;93.00;;;;;;5136092;28;20490;-48
2022/03/24 01:57:20;;;;;;;40.57;19.13;;;4.20;93.50;;;;;;5127992;28;20462;-49
2022/03/24 01:59:51;;;;;;;48.50;20.60;;;4.20;93.90;;;;;;5124503;28;20441;-48
2022/03/24 02:02:22;;;;;;;35.13;19.27;;;4.10;94.70;;;;;;5127901;28;20445;-48
2022/03/24 02:04:52;;;;;;;33.10;19.10;;;4.10;94.80;;;;;;5123965;28;20867;-47
2022/03/24 02:07:23;;;;;;;37.17;19.03;;;4.10;95.30;;;;;;5138027;28;20265;-47
2022/03/24 02:09:54;;;;;;;39.80;19.37;;;4.00;95.70;;;;;;5129115;28;20214;-48
2022/03/24 02:12:25;;;;;;;35.43;19.77;;;4.00;96.50;;;;;;5131784;28;20181;-49
2022/03/24 02:14:58;;;;;;;39.63;19.80;;;4.00;97.10;;;;;;5135458;28;20182;-49
2022/03/24 02:17:30;;;;;;;38.10;19.77;;;4.00;97.90;;;;;;5134391;28;21317;-47
2022/03/24 02:20:01;;;;;;;38.87;19.90;;;4.00;98.10;;;;;;5132659;28;20776;-48
2022/03/24 02:22:31;;;;;;;44.43;20.37;;;4.00;98.30;;;;;;5129729;28;20491;-47
2022/03/24 02:25:02;;;;;;;42.93;20.70;;;4.00;98.30;;;;;;5130599;28;20191;-47
2022/03/24 02:27:33;;;;;;;37.93;20.47;;;3.90;98.60;;;;;;5136889;28;20201;-48
2022/03/24 02:30:04;;;;;;;44.07;20.67;;;3.90;98.60;;;;;;5125874;28;20175;-47
2022/03/24 02:32:36;;;;;;;41.30;19.70;;;3.90;99.10;;;;;;5134049;28;20269;-47
2022/03/24 02:35:07;;;;;;;44.70;22.03;;;3.90;99.30;;;;;;5128343;28;20459;-47
2022/03/24 02:37:38;;;;;;;46.03;21.10;;;3.80;99.50;;;;;;5135140;28;20475;-46
2022/03/24 02:40:09;;;;;;;44.73;20.70;;;3.90;99.90;;;;;;5132642;28;20463;-47
2022/03/24 02:42:40;;;;;;;41.20;21.30;;;3.80;99.90;;;;;;5132275;28;20202;-47
2022/03/24 02:45:10;;;;;;;39.43;20.97;;;3.70;99.90;;;;;;5134425;28;21084;-48
2022/03/24 02:47:41;;;;;;;45.27;21.77;;;3.70;99.90;;;;;;5130400;28;20233;-47
2022/03/24 02:50:12;;;;;;;39.20;20.77;;;3.60;99.90;;;;;;5136436;28;20673;-54
2022/03/24 02:52:42;;;;;;;42.47;22.47;;;3.50;99.90;;;;;;5136285;28;20669;-47
2022/03/24 02:55:13;;;;;;;50.10;22.23;;;3.50;99.90;;;;;;5139326;28;20186;-48
2022/03/24 02:57:43;;;;;;;42.40;20.20;;;3.40;99.90;;;;;;5136316;28;20760;-47
2022/03/24 03:00:15;;;;;;;49.37;22.47;;;3.40;99.90;;;;;;5140793;28;20561;-49
2022/03/24 03:02:46;;;;;;;44.50;22.67;;;3.30;99.90;;;;;;5137265;28;20201;-48
2022/03/24 03:05:17;;;;;;;45.77;22.23;;;3.30;99.90;;;;;;5134665;28;20444;-48
2022/03/24 03:07:48;;;;;;;47.97;22.90;;;3.20;99.90;;;;;;5129273;28;20534;-49
2022/03/24 03:10:19;;;;;;;51.30;23.50;;;3.20;99.90;;;;;;5151557;28;20432;-49
2022/03/24 03:12:49;;;;;;;49.03;23.93;;;3.10;99.90;;;;;;5137917;28;20216;-47
2022/03/24 03:15:20;;;;;;;49.60;24.63;;;3.10;99.90;;;;;;5130635;28;20326;-48
2022/03/24 03:17:50;;;;;;;44.97;22.40;;;3.10;99.90;;;;;;5137210;28;20220;-47
2022/03/24 03:20:21;;;;;;;48.17;23.00;;;3.10;99.90;;;;;;5138003;28;20190;-48
2022/03/24 03:22:51;;;;;;;47.57;24.80;;;3.00;99.90;;;;;;5137493;28;20599;-48
2022/03/24 03:25:22;;;;;;;51.23;25.07;;;3.00;99.90;;;;;;5129210;28;20187;-48
2022/03/24 03:27:53;;;;;;;49.37;24.10;;;2.90;99.90;;;;;;5136686;28;20285;-47
2022/03/24 03:30:23;;;;;;;45.13;23.47;;;2.80;99.90;;;;;;5140020;28;20445;-48
2022/03/24 03:32:54;;;;;;;53.17;26.53;;;2.80;99.90;;;;;;5136814;28;20201;-47
2022/03/24 03:35:26;;;;;;;51.60;25.00;;;2.70;99.90;;;;;;5136090;28;20288;-48
2022/03/24 03:37:56;;;;;;;51.27;26.40;;;2.60;99.90;;;;;;5135536;28;20512;-47
2022/03/24 03:40:27;;;;;;;49.60;24.30;;;2.60;99.90;;;;;;5165883;28;20487;-47
2022/03/24 03:42:58;;;;;;;46.33;25.17;;;2.50;99.90;;;;;;5134036;28;20650;-46
2022/03/24 03:45:28;;;;;;;47.97;26.23;;;2.50;99.90;;;;;;5128291;28;20272;-46
2022/03/24 03:47:58;;;;;;;48.30;24.07;;;2.40;99.90;;;;;;5139327;28;20197;-47
2022/03/24 03:50:29;;;;;;;49.60;26.60;;;2.40;99.90;;;;;;5136348;28;20282;-47
2022/03/24 03:53:00;;;;;;;45.83;23.97;;;2.40;99.90;;;;;;5136687;28;20183;-47
2022/03/24 03:55:31;;;;;;;50.70;25.47;;;2.30;99.90;;;;;;5138632;28;20185;-47
2022/03/24 03:58:06;;;;;;;49.13;26.23;;;2.30;99.90;;;;;;5134340;28;20477;-47
2022/03/24 04:03:28;;;;;;;44.47;25.40;;;2.20;99.90;;;;;;5132821;28;20502;-46
2022/03/24 04:06:01;;;;;;;45.53;25.00;;;2.20;99.90;;;;;;5131316;28;20433;-48
2022/03/24 04:08:32;;;;;;;46.13;25.53;;;2.20;99.90;;;;;;5134997;28;20545;-49
2022/03/24 04:11:03;;;;;;;44.40;24.23;;;2.10;99.90;;;;;;5135737;28;20472;-48
2022/03/24 04:13:35;;;;;;;58.20;26.70;;;2.10;99.90;;;;;;5140514;28;20852;-47
2022/03/24 04:16:06;;;;;;;43.87;25.40;;;2.00;99.90;;;;;;5137393;28;20441;-47
2022/03/24 04:18:49;;;;;;;55.77;26.23;;;2.00;99.90;;;;;;5124989;28;20465;-47
2022/03/24 04:21:20;;;;;;;48.23;26.70;;;1.90;99.90;;;;;;5124167;28;21028;-49
2022/03/24 04:23:51;;;;;;;61.20;27.93;;;1.90;99.90;;;;;;5133296;28;20529;-47
2022/03/24 04:26:22;;;;;;;56.57;28.77;;;1.80;99.90;;;;;;5136395;28;20186;-47
2022/03/24 04:28:52;;;;;;;52.23;27.20;;;1.80;99.90;;;;;;5137751;28;20704;-48
2022/03/24 04:31:23;;;;;;;54.00;27.73;;;1.80;99.90;;;;;;5131557;28;20453;-48
2022/03/24 04:33:54;;;;;;;61.23;28.93;;;1.70;99.90;;;;;;5138440;28;20245;-48
2022/03/24 04:36:25;;;;;;;51.77;28.93;;;1.70;99.90;;;;;;5132993;28;20188;-47
2022/03/24 04:38:55;;;;;;;55.30;27.27;;;1.70;99.90;;;;;;5128178;28;20480;-46
2022/03/24 04:41:26;;;;;;;57.50;28.57;;;1.70;99.90;;;;;;5136732;28;20195;-48
2022/03/24 04:43:56;;;;;;;61.13;29.17;;;1.70;99.90;;;;;;5128796;28;20179;-47
2022/03/24 04:46:27;;;;;;;60.03;30.17;;;1.70;99.90;;;;;;5128412;28;20180;-47
2022/03/24 04:48:57;;;;;;;53.40;29.47;;;1.70;99.90;;;;;;5128797;28;20221;-47
2022/03/24 04:51:28;;;;;;;66.53;30.07;;;1.70;99.90;;;;;;5128255;28;20218;-47
2022/03/24 04:53:58;;;;;;;53.67;29.77;;;1.70;99.90;;;;;;5129462;28;20210;-47
2022/03/24 04:56:29;;;;;;;50.50;27.43;;;1.70;99.90;;;;;;5131888;28;20184;-47
2022/03/24 04:59:00;;;;;;;56.97;30.53;;;1.70;99.90;;;;;;5138735;28;20313;-47
2022/03/24 05:01:30;;;;;;;65.23;30.43;;;1.70;99.90;;;;;;5115807;28;20210;-48
2022/03/24 05:04:01;;;;;;;63.80;29.80;;;1.70;99.90;;;;;;5132772;28;20694;-48
2022/03/24 05:06:32;;;;;;;54.47;28.80;;;1.80;99.90;;;;;;5130649;28;20187;-48
2022/03/24 05:09:02;;;;;;;52.60;28.77;;;1.80;99.90;;;;;;5133582;28;20218;-47
2022/03/24 05:11:33;;;;;;;57.93;30.27;;;1.80;99.90;;;;;;5135712;28;20452;-47
2022/03/24 05:14:04;;;;;;;53.67;29.47;;;1.80;99.90;;;;;;5134082;28;20435;-46
2022/03/24 05:16:35;;;;;;;61.80;31.90;;;1.90;99.90;;;;;;5132822;28;20204;-48
2022/03/24 05:19:05;;;;;;;58.93;30.70;;;1.90;99.90;;;;;;5129514;28;20221;-47
2022/03/24 05:21:36;;;;;;;57.47;30.40;;;1.90;99.90;;;;;;5133706;28;20435;-47
2022/03/24 05:24:06;;;;;;;74.20;31.70;;;2.00;99.90;;;;;;5128633;28;20224;-47
2022/03/24 05:26:37;;;;;;;57.33;30.80;;;2.00;99.90;;;;;;5131747;28;20182;-46
2022/03/24 05:29:09;;;;;;;77.80;31.60;;;2.10;99.90;;;;;;5133696;28;20211;-49
2022/03/24 05:31:39;;;;;;;59.63;31.20;;;2.20;99.90;;;;;;5134582;28;20443;-46
2022/03/24 05:34:10;;;;;;;63.57;32.50;;;2.20;99.90;;;;;;5132300;28;20496;-46
2022/03/24 05:36:41;;;;;;;55.47;30.60;;;2.30;99.90;;;;;;5134239;28;20591;-48
2022/03/24 05:39:12;;;;;;;59.97;30.60;;;2.40;99.90;;;;;;5136955;28;20527;-48
2022/03/24 05:41:42;;;;;;;56.73;30.53;;;2.60;99.90;;;;;;5131589;28;21111;-48
2022/03/24 05:44:13;;;;;;;55.47;30.10;;;2.80;99.90;;;;;;5133769;28;20214;-47
2022/03/24 05:46:44;;;;;;;64.27;30.63;;;3.00;99.90;;;;;;5131840;28;20487;-47
2022/03/24 05:49:19;;;;;;;81.53;33.70;;;3.00;99.90;;;;;;5137858;28;20234;-48
2022/03/24 05:51:50;;;;;;;64.97;33.10;;;3.20;99.90;;;;;;5136009;28;20441;-47
2022/03/24 05:54:21;;;;;;;68.97;32.33;;;3.30;99.90;;;;;;5129945;28;20449;-46
2022/03/24 05:56:52;;;;;;;73.10;34.50;;;3.40;99.90;;;;;;5136219;28;20441;-47
2022/03/24 05:59:22;;;;;;;64.63;31.83;;;3.70;99.90;;;;;;5130114;28;20221;-49
2022/03/24 06:01:53;;;;;;;62.07;31.40;;;4.30;99.90;;;;;;5123016;28;20194;-46
2022/03/24 06:04:24;;;;;;;65.37;31.57;;;5.20;99.90;;;;;;5136231;28;20246;-47
2022/03/24 06:06:57;;;;;;;62.97;30.63;;;6.00;99.90;;;;;;5149140;28;20268;-48
2022/03/24 06:09:29;;;;;;;58.07;31.50;;;6.90;99.90;;;;;;5133562;28;20490;-46
2022/03/24 06:12:00;;;;;;;57.73;30.80;;;8.20;90.90;;;;;;5131949;28;20446;-47
2022/03/24 06:14:31;;;;;;;59.73;28.80;;;9.40;71.00;;;;;;5137307;28;20465;-47
2022/03/24 06:17:02;;;;;;;54.60;30.33;;;10.50;57.80;;;;;;5141423;28;20937;-48
2022/03/24 06:19:34;;;;;;;60.23;28.50;;;11.30;52.90;;;;;;5136595;28;20567;-47
2022/03/24 06:22:07;;;;;;;52.00;28.87;;;12.00;48.70;;;;;;5139187;28;20178;-50
2022/03/24 06:24:38;;;;;;;64.40;32.90;;;12.50;47.70;;;;;;5142937;28;20437;-50
2022/03/24 06:27:09;;;;;;;55.07;29.43;;;13.20;44.40;;;;;;5143576;28;20437;-48
2022/03/24 06:29:39;;;;;;;52.03;29.40;;;13.70;42.60;;;;;;5128431;28;20224;-46
2022/03/24 06:32:10;;;;;;;55.13;31.80;;;13.90;41.40;;;;;;5145748;28;20936;-48
2022/03/24 06:34:40;;;;;;;55.70;30.60;;;13.90;41.30;;;;;;5145512;28;20197;-47
2022/03/24 06:37:11;;;;;;;54.13;30.40;;;14.00;40.80;;;;;;5140746;28;20189;-51
2022/03/24 06:39:42;;;;;;;65.93;30.40;;;14.40;40.10;;;;;;5139471;28;20269;-48
2022/03/24 06:42:13;;;;;;;60.93;31.20;;;14.80;38.90;;;;;;5146481;28;20433;-48
2022/03/24 06:44:44;;;;;;;59.10;30.20;;;14.90;38.20;;;;;;5141791;28;20661;-47
2022/03/24 06:47:15;;;;;;;56.20;31.83;;;14.80;38.20;;;;;;5138214;28;20524;-46
2022/03/24 06:49:45;;;;;;;52.50;30.43;;;15.00;37.90;;;;;;5140735;28;20662;-47
2022/03/24 06:52:16;;;;;;;62.70;30.63;;;15.50;37.20;;;;;;5142617;28;20467;-51
2022/03/24 06:54:47;;;;;;;53.47;31.10;;;15.80;36.60;;;;;;5139773;28;20210;-49
2022/03/24 06:57:17;;;;;;;56.63;27.47;;;16.30;35.90;;;;;;5141122;28;20186;-49
2022/03/24 06:59:48;;;;;;;54.73;29.97;;;16.80;35.50;;;;;;5158419;28;20269;-48
2022/03/24 07:02:19;;;;;;;57.43;32.07;;;17.80;33.70;;;;;;5135265;28;20261;-49
2022/03/24 07:04:49;;;;;;;60.40;31.10;;;18.50;32.60;;;;;;5140738;28;20656;-46
2022/03/24 07:07:20;;;;;;;55.67;30.87;;;18.80;31.70;;;;;;5143105;28;20236;-50
2022/03/24 07:09:50;;;;;;;57.50;30.90;;;18.30;31.20;;;;;;5145838;28;20193;-48
2022/03/24 07:12:21;;;;;;;65.73;32.37;;;17.90;32.20;;;;;;5138753;28;20236;-48
2022/03/24 07:14:52;;;;;;;58.10;31.03;;;17.70;32.40;;;;;;5147003;28;20182;-47
2022/03/24 07:17:23;;;;;;;59.43;32.50;;;17.80;32.50;;;;;;5143682;28;20452;-48
2022/03/24 07:19:53;;;;;;;58.23;29.97;;;18.10;32.20;;;;;;5163432;22;20301;-49
2022/03/24 07:22:24;;;;;;;57.77;30.43;;;18.30;31.60;;;;;;5157008;28;20190;-50
2022/03/24 07:24:54;;;;;;;56.83;31.67;;;18.10;31.30;;;;;;5160196;28;20209;-49
2022/03/24 07:27:25;;;;;;;61.17;30.80;;;17.80;32.00;;;;;;5163793;28;20275;-51
2022/03/24 07:29:56;;;;;;;55.60;31.47;;;17.60;32.10;;;;;;5144889;28;20266;-49
2022/03/24 07:32:27;;;;;;;53.40;30.87;;;17.80;32.60;;;;;;5145938;28;20185;-50
2022/03/24 07:34:58;;;;;;;62.80;32.70;;;18.00;32.00;;;;;;5142081;28;20316;-49
2022/03/24 07:37:31;;;;;;;52.67;30.23;;;18.50;31.70;;;;;;5143245;28;20479;-48
2022/03/24 07:40:02;;;;;;;54.57;31.90;;;19.40;30.30;;;;;;5141467;28;20445;-50
2022/03/24 07:42:33;;;;;;;55.23;32.80;;;19.60;29.90;;;;;;5142810;28;20584;-49
2022/03/24 07:45:05;;;;;;;47.80;30.30;;;18.90;30.10;;;;;;5143525;28;20512;-49
2022/03/24 07:48:02;;;;;;;66.60;34.60;;;19.40;30.80;;;;;;5155165;28;20205;-47
2022/03/24 07:50:37;;;;;;;57.10;30.77;;;20.30;29.30;;;;;;5152844;28;20440;-49
2022/03/24 07:53:14;;;;;;;56.23;31.40;;;19.90;29.00;;;;;;5143635;28;20439;-50
2022/03/24 07:55:46;;;;;;;58.87;31.67;;;19.00;29.90;;;;;;5137857;28;20525;-50
2022/03/24 07:58:17;;;;;;;79.20;33.90;;;19.00;30.60;;;;;;5139633;28;20961;-51
2022/03/24 08:00:48;;;;;;;56.63;30.40;;;19.10;30.20;;;;;;5162729;28;20445;-50
2022/03/24 08:03:20;;;;;;;71.03;30.63;;;19.50;30.30;;;;;;5143731;28;20439;-51
2022/03/24 08:05:51;;;;;;;66.57;32.73;;;19.60;29.90;;;;;;5149732;28;20467;-50
2022/03/24 08:08:22;;;;;;;54.30;28.57;;;18.70;30.30;;;;;;5135859;28;20927;-49
2022/03/24 08:10:53;;;;;;;59.47;32.67;;;18.40;31.80;;;;;;5144363;28;20182;-52
2022/03/24 08:13:25;;;;;;;69.93;29.33;;;18.00;31.80;;;;;;5144979;28;20198;-50
2022/03/24 08:15:56;;;;;;;62.77;31.40;;;16.80;33.70;;;;;;5144658;28;20444;-50
2022/03/24 08:18:27;;;;;;;61.40;30.97;;;15.90;34.60;;;;;;5131983;28;20477;-48
2022/03/24 08:20:57;;;;;;;57.10;30.50;;;14.70;36.40;;;;;;5139541;28;20440;-49
2022/03/24 08:23:28;;;;;;;66.17;32.40;;;13.50;38.30;;;;;;5137161;28;20657;-49
2022/03/24 08:25:58;;;;;;;60.60;33.07;;;12.60;40.10;;;;;;5130928;28;20197;-51
2022/03/24 08:28:29;;;;;;;59.73;31.27;;;11.90;41.70;;;;;;5136516;28;20206;-50
2022/03/24 08:30:59;;;;;;;58.33;30.77;;;11.40;42.90;;;;;;5142471;28;20201;-56
2022/03/24 08:33:30;;;;;;;57.73;31.67;;;11.10;43.80;;;;;;5141054;28;20189;-50
2022/03/24 08:36:01;;;;;;;55.20;29.63;;;10.80;44.70;;;;;;5139840;28;20190;-50
2022/03/24 08:38:31;;;;;;;52.13;28.83;;;10.90;45.20;;;;;;5158758;28;20250;-48
2022/03/24 08:41:02;;;;;;;53.20;28.90;;;10.90;45.00;;;;;;5140919;28;20295;-48
2022/03/24 08:43:32;;;;;;;57.80;31.57;;;10.90;44.90;;;;;;5143241;28;20277;-50
2022/03/24 08:46:03;;;;;;;55.03;28.90;;;10.70;45.10;;;;;;5139432;28;20193;-51
2022/03/24 08:48:34;;;;;;;59.63;30.63;;;10.70;45.50;;;;;;5153291;28;20205;-51
2022/03/24 08:51:06;;;;;;;52.17;28.43;;;10.60;46.00;;;;;;5136866;28;20592;-49
2022/03/24 08:53:38;;;;;;;57.77;28.20;;;10.60;46.40;;;;;;5135671;28;20548;-50
2022/03/24 08:56:10;;;;;;;56.87;30.10;;;10.40;46.60;;;;;;5140902;28;20992;-51
2022/03/24 08:58:41;;;;;;;46.97;27.07;;;10.20;47.40;;;;;;5151779;28;20217;-49
2022/03/24 09:01:11;;;;;;;47.73;26.70;;;10.20;48.10;;;;;;5143977;28;20463;-51
2022/03/24 09:03:42;;;;;;;62.50;31.50;;;10.30;48.30;;;;;;5136253;28;20229;-49
2022/03/24 09:06:12;;;;;;;73.47;30.07;;;10.40;48.30;;;;;;5138219;28;20633;-49
2022/03/24 09:08:43;;;;;;;53.13;29.30;;;10.50;48.60;;;;;;5136364;28;20641;-49
2022/03/24 09:11:13;;;;;;;43.20;24.87;;;10.30;48.30;;;;;;5168173;28;20274;-50
2022/03/24 09:13:44;;;;;;;53.13;26.13;;;10.30;48.50;;;;;;5134774;28;20202;-49
2022/03/24 09:16:15;;;;;;;55.23;27.10;;;10.60;48.30;;;;;;5136195;28;20256;-50
2022/03/24 09:18:46;;;;;;;54.67;26.20;;;10.70;46.80;;;;;;5128793;28;20313;-51
2022/03/24 09:21:16;;;;;;;47.70;27.43;;;10.80;46.60;;;;;;5138779;28;20444;-51
2022/03/24 09:23:47;;;;;;;50.50;24.70;;;10.80;46.50;;;;;;5136828;28;20174;-49
2022/03/24 09:26:19;;;;;;;53.37;24.97;;;10.80;46.60;;;;;;5141262;28;20217;-51
2022/03/24 09:28:52;;;;;;;50.57;24.53;;;11.00;45.90;;;;;;5143828;28;20572;-49
2022/03/24 09:31:23;;;;;;;44.93;26.03;;;11.10;45.70;;;;;;5139575;28;20445;-49
2022/03/24 09:33:53;;;;;;;43.70;23.23;;;11.30;45.60;;;;;;5143936;28;20444;-48
2022/03/24 09:36:24;;;;;;;49.17;23.93;;;11.40;45.00;;;;;;5140920;28;20198;-49
2022/03/24 09:38:56;;;;;;;45.17;22.53;;;11.50;44.10;;;;;;5141723;28;20221;-49
2022/03/24 09:41:28;;;;;;;35.67;19.23;;;11.70;43.10;;;;;;5131097;28;20605;-50
2022/03/24 09:43:59;;;;;;;33.33;20.47;;;11.90;42.90;;;;;;5156322;28;20944;-49
2022/03/24 09:46:31;;;;;;;39.13;19.90;;;12.00;40.50;;;;;;5142670;28;20451;-49
2022/03/24 09:49:01;;;;;;;41.50;21.20;;;12.20;40.60;;;;;;5156194;28;20296;-50
2022/03/24 09:51:32;;;;;;;44.03;20.33;;;12.30;40.10;;;;;;5138023;28;20973;-51
2022/03/24 09:54:02;;;;;;;31.70;18.70;;;12.30;39.30;;;;;;5138831;28;20551;-50
2022/03/24 09:56:33;;;;;;;33.30;19.30;;;12.20;37.80;;;;;;5138755;28;20543;-49
2022/03/24 09:59:05;;;;;;;34.23;18.57;;;12.10;37.80;;;;;;5148403;28;20244;-52
2022/03/24 10:01:39;;;;;;;34.97;17.03;;;12.00;38.30;;;;;;5140292;28;20178;-49
2022/03/24 10:04:14;;;;;;;31.87;17.50;;;12.00;36.90;;;;;;5132195;28;20437;-49
2022/03/24 10:07:00;;;;;;;47.23;20.47;;;11.90;36.00;;;;;;5134971;28;20445;-51
2022/03/24 10:09:43;;;;;;;31.67;16.77;;;11.80;37.10;;;;;;5137681;28;20464;-49
2022/03/24 10:12:21;;;;;;;27.17;15.80;;;12.00;36.60;;;;;;5134040;28;20437;-48
2022/03/24 10:15:06;;;;;;;31.10;16.10;;;12.00;35.70;;;;;;5133858;28;20431;-50
2022/03/24 10:17:38;;;;;;;27.13;14.47;;;12.20;35.30;;;;;;5141082;28;20937;-49
2022/03/24 10:20:15;;;;;;;24.53;14.30;;;12.20;34.70;;;;;;5143193;28;20476;-50
2022/03/24 10:23:03;;;;;;;39.27;16.60;;;12.30;33.60;;;;;;5136900;28;20436;-50
2022/03/24 10:25:37;;;;;;;34.23;17.00;;;12.40;33.50;;;;;;5137646;28;20569;-50
2022/03/24 10:28:19;;;;;;;27.83;15.77;;;12.50;33.10;;;;;;5137740;28;20470;-49
2022/03/24 10:30:52;;;;;;;33.67;18.17;;;12.50;34.20;;;;;;5130925;28;20516;-51
2022/03/24 10:33:34;;;;;;;32.00;15.17;;;12.50;35.30;;;;;;5154440;28;20536;-50
2022/03/24 10:36:13;;;;;;;30.87;15.93;;;12.60;35.90;;;;;;5156858;28;20428;-50
2022/03/24 10:38:47;;;;;;;32.33;17.60;;;12.80;35.60;;;;;;5138355;28;20491;-52
2022/03/24 10:41:28;;;;;;;38.57;20.13;;;13.00;35.50;;;;;;5142110;28;20447;-49
2022/03/24 10:44:11;;;;;;;42.10;19.90;;;13.20;36.00;;;;;;5134567;28;20817;-48
2022/03/24 10:46:44;;;;;;;33.60;18.70;;;13.30;35.60;;;;;;5138406;28;20432;-50
2022/03/24 10:49:23;;;;;;;33.63;16.70;;;13.60;34.80;;;;;;5138420;28;20509;-50
2022/03/24 10:51:54;;;;;;;36.90;18.23;;;13.70;34.70;;;;;;5137054;28;20452;-51
2022/03/24 10:54:28;;;;;;;37.33;18.53;;;13.90;34.80;;;;;;5126597;28;20551;-50
2022/03/24 10:57:06;;;;;;;41.57;20.80;;;13.90;34.80;;;;;;5136865;28;20805;-51
2022/03/24 10:59:47;;;;;;;35.97;20.30;;;13.80;34.80;;;;;;5135703;28;20484;-52
2022/03/24 11:02:18;;;;;;;45.97;19.90;;;13.60;35.40;;;;;;5136187;28;20468;-50
2022/03/24 11:04:48;;;;;;;39.73;21.13;;;13.70;35.30;;;;;;5131769;28;20847;-50
2022/03/24 11:07:26;;;;;;;31.50;18.20;;;13.80;35.30;;;;;;5137651;28;20645;-49
2022/03/24 11:09:56;;;;;;;38.57;19.47;;;14.00;34.70;;;;;;5142910;28;20212;-49
2022/03/24 11:12:38;;;;;;;35.10;16.97;;;14.10;34.30;;;;;;5158125;28;20796;-50
2022/03/24 11:15:09;;;;;;;32.30;18.13;;;14.30;34.00;;;;;;5147374;28;20178;-49
2022/03/24 11:17:40;;;;;;;36.70;17.10;;;14.40;33.60;;;;;;5156956;28;20465;-50
2022/03/24 11:20:13;;;;;;;33.23;16.50;;;14.50;34.00;;;;;;5143938;28;20451;-53
2022/03/24 11:22:58;;;;;;;45.80;16.60;;;14.30;33.00;;;;;;5141220;28;20258;-50
2022/03/24 11:25:29;;;;;;;30.53;15.50;;;14.20;32.50;;;;;;5156510;28;20437;-50
2022/03/24 11:28:03;;;;;;;26.03;14.00;;;14.20;32.10;;;;;;5142146;28;20457;-51
2022/03/24 11:30:34;;;;;;;23.90;14.20;;;14.30;30.10;;;;;;5123186;28;20444;-49
2022/03/24 11:33:05;;;;;;;28.73;15.93;;;14.40;30.00;;;;;;5145096;28;20424;-49
2022/03/24 11:35:36;;;;;;;24.33;13.77;;;14.50;29.90;;;;;;5146457;28;20441;-50
2022/03/24 11:38:07;;;;;;;31.97;14.17;;;14.50;30.10;;;;;;5145374;28;20309;-49
2022/03/24 11:40:39;;;;;;;17.20;11.40;;;14.70;30.70;;;;;;5143106;28;20757;-51
2022/03/24 11:43:15;;;;;;;38.90;14.90;;;14.80;30.90;;;;;;5145487;28;20601;-49
2022/03/24 11:45:48;;;;;;;31.07;14.83;;;15.00;30.00;;;;;;5161821;28;20470;-50
2022/03/24 11:48:35;;;;;;;31.13;17.00;;;15.00;29.40;;;;;;5138773;28;20514;-51
2022/03/24 11:51:20;;;;;;;28.47;14.83;;;14.90;29.40;;;;;;5132472;28;20497;-51
2022/03/24 11:54:03;;;;;;;29.17;14.20;;;14.70;29.60;;;;;;5140133;28;20516;-50
2022/03/24 11:56:34;;;;;;;28.40;14.17;;;14.80;29.60;;;;;;5128344;28;20441;-50
2022/03/24 11:59:06;;;;;;;26.90;14.20;;;14.80;29.50;;;;;;5150394;28;20488;-51
2022/03/24 12:01:37;;;;;;;27.00;13.73;;;14.90;29.10;;;;;;5140977;28;20436;-58
2022/03/24 12:04:10;;;;;;;22.90;13.73;;;14.90;28.80;;;;;;5136711;28;20452;-50
2022/03/24 12:06:41;;;;;;;25.53;14.50;;;14.90;28.70;;;;;;5140123;28;20924;-50
2022/03/24 12:09:14;;;;;;;23.00;13.47;;;14.90;28.70;;;;;;5141467;28;20455;-51
2022/03/24 12:11:46;;;;;;;41.27;13.67;;;15.00;28.40;;;;;;5155787;28;20630;-51
2022/03/24 12:14:20;;;;;;;21.10;12.53;;;15.10;28.10;;;;;;5124464;28;20440;-51
2022/03/24 12:16:53;;;;;;;21.57;11.80;;;14.90;26.90;;;;;;5161850;28;20425;-51
2022/03/24 12:19:35;;;;;;;24.73;13.43;;;14.80;27.30;;;;;;5140606;28;20525;-49
2022/03/24 12:22:28;;;;;;;23.97;13.33;;;14.70;28.30;;;;;;5148856;28;20524;-50
2022/03/24 12:24:59;;;;;;;22.00;13.50;;;14.70;28.30;;;;;;5135365;28;20520;-50
2022/03/24 12:27:31;;;;;;;24.70;13.70;;;14.90;28.40;;;;;;5137100;28;20858;-51
2022/03/24 12:30:49;;;;;;;25.30;13.60;;;14.90;28.50;;;;;;5137758;28;20198;-51
2022/03/24 12:33:41;;;;;;;30.20;15.07;;;15.10;28.60;;;;;;5128925;28;20441;-48
2022/03/24 12:36:14;;;;;;;27.37;13.53;;;15.20;28.30;;;;;;5156893;28;20425;-50
2022/03/24 12:38:47;;;;;;;29.73;13.93;;;15.10;28.20;;;;;;5140301;28;20944;-49
2022/03/24 12:41:20;;;;;;;27.27;11.83;;;15.00;28.30;;;;;;5137952;28;20451;-49
2022/03/24 12:43:56;;;;;;;34.47;14.80;;;14.90;28.60;;;;;;5132689;28;20832;-50
2022/03/24 12:46:33;;;;;;;21.60;13.20;;;14.90;28.50;;;;;;5134967;28;20437;-49
2022/03/24 12:49:14;;;;;;;32.13;14.13;;;15.00;28.50;;;;;;5119077;28;20484;-51
2022/03/24 12:52:01;;;;;;;25.60;13.20;;;15.20;28.40;;;;;;5147905;28;20483;-50
2022/03/24 12:54:44;;;;;;;21.27;14.07;;;15.20;28.30;;;;;;5145837;28;20538;-51
2022/03/24 12:57:21;;;;;;;26.67;13.70;;;15.30;28.20;;;;;;5135486;28;20441;-51
2022/03/24 12:59:52;;;;;;;26.63;13.97;;;15.30;28.30;;;;;;5146937;28;20872;-50